createdAt,value
2023-05-08T00:04:10.643Z,97944.09
2023-05-08T00:09:14.246Z,97939.91
2023-05-08T00:14:17.501Z,97946.50
2023-05-08T00:19:22.234Z,97944.72
2023-05-08T00:24:26.423Z,97941.81
2023-05-08T00:29:29.749Z,97933.56
2023-05-08T00:34:34.552Z,97946.16
2023-05-08T00:39:37.887Z,97949.00
2023-05-08T00:44:41.823Z,97946.97
2023-05-08T00:49:46.840Z,97944.34
2023-05-08T00:54:50.687Z,97938.41
2023-05-08T00:59:55.244Z,97950.09
2023-05-08T01:04:59.851Z,97952.22
2023-05-08T01:10:03.480Z,97957.13
2023-05-08T01:15:12.809Z,97956.50
2023-05-08T01:20:35.111Z,97958.09
2023-05-08T01:26:15.944Z,97953.44
2023-05-08T01:31:26.229Z,97955.47
2023-05-08T01:36:51.515Z,97953.47
2023-05-08T01:42:00.812Z,97953.34
2023-05-08T01:47:08.243Z,97949.19
2023-05-08T01:52:18.625Z,97957.69
2023-05-08T01:57:25.418Z,97962.75
2023-05-08T02:02:31.460Z,97956.63
2023-05-08T02:07:38.869Z,97961.59
2023-05-08T02:12:44.447Z,97964.25
2023-05-08T02:17:51.869Z,97965.31
2023-05-08T02:22:58.296Z,97965.22
2023-05-08T02:28:02.603Z,97964.59
2023-05-08T02:33:10.113Z,97971.69
2023-05-08T02:38:17.230Z,97973.25
2023-05-08T02:43:20.665Z,97963.94
2023-05-08T02:48:27.757Z,97976.00
2023-05-08T02:53:37.529Z,97970.91
2023-05-08T02:58:46.239Z,97962.56
2023-05-08T03:03:57.466Z,97958.72
2023-05-08T03:09:04.247Z,97967.84
2023-05-08T03:14:10.817Z,97956.53
2023-05-08T03:19:22.406Z,97956.97
2023-05-08T03:24:31.558Z,97961.94
2023-05-08T03:29:37.689Z,97965.84
2023-05-08T03:34:42.200Z,97964.16
2023-05-08T03:39:47.206Z,97963.53
2023-05-08T03:44:52.475Z,97961.38
2023-05-08T03:49:56.538Z,97963.94
2023-05-08T03:55:03.651Z,97970.88
2023-05-08T04:00:14.703Z,97965.53
2023-05-08T04:05:27.131Z,97967.84
2023-05-08T04:10:37.649Z,97969.34
2023-05-08T04:15:50.074Z,97972.28
2023-05-08T04:20:57.134Z,97974.72
2023-05-08T04:26:05.652Z,97976.13
2023-05-08T04:31:11.346Z,97982.25
2023-05-08T04:36:15.905Z,97980.13
2023-05-08T04:41:22.694Z,97980.13
2023-05-08T04:46:26.688Z,97979.88
2023-05-08T04:51:31.865Z,97983.50
2023-05-08T04:56:36.665Z,97982.03
2023-05-08T05:01:40.043Z,97996.59
2023-05-08T05:06:44.339Z,97993.53
2023-05-08T05:11:49.965Z,98006.44
2023-05-08T05:16:53.278Z,98001.38
2023-05-08T05:21:57.058Z,98009.81
2023-05-08T05:27:02.020Z,98007.38
2023-05-08T05:32:07.256Z,98003.41
2023-05-08T05:37:10.790Z,97999.88
2023-05-08T05:42:16.219Z,98000.75
2023-05-08T05:47:20.016Z,98005.69
2023-05-08T05:52:23.389Z,98006.53
2023-05-08T05:57:28.154Z,98004.22
2023-05-08T06:02:32.760Z,98013.84
2023-05-08T06:07:36.225Z,98006.03
2023-05-08T06:12:41.927Z,98001.22
2023-05-08T06:17:46.762Z,98007.13
2023-05-08T06:22:50.075Z,98003.91
2023-05-08T06:27:54.675Z,98008.44
2023-05-08T06:32:59.320Z,98009.31
2023-05-08T06:38:02.707Z,98003.44
2023-05-08T06:43:07.241Z,98008.59
2023-05-08T06:48:10.807Z,98001.50
2023-05-08T06:53:14.386Z,98007.38
2023-05-08T06:58:19.088Z,98000.00
2023-05-08T07:03:22.436Z,98002.56
2023-05-08T07:08:26.111Z,98000.84
2023-05-08T07:13:32.208Z,97993.63
2023-05-08T07:18:35.599Z,98001.84
2023-05-08T07:23:38.871Z,97999.03
2023-05-08T07:28:43.613Z,98004.38
2023-05-08T07:33:46.911Z,98000.84
2023-05-08T07:38:50.228Z,98008.81
2023-05-08T07:43:54.880Z,97993.16
2023-05-08T07:48:58.121Z,98007.66
2023-05-08T07:54:01.405Z,97994.53
2023-05-08T07:59:06.104Z,97994.38
2023-05-08T08:04:09.817Z,97986.47
2023-05-08T08:09:13.130Z,97982.38
2023-05-08T08:14:18.023Z,97989.16
2023-05-08T08:19:21.258Z,97987.25
2023-05-08T08:24:25.287Z,97979.06
2023-05-08T08:29:30.261Z,97989.97
2023-05-08T08:34:35.006Z,97980.66
2023-05-08T08:39:38.291Z,97986.28
2023-05-08T08:44:43.234Z,97977.22
2023-05-08T08:49:49.978Z,97978.91
2023-05-08T08:54:54.308Z,97978.28
2023-05-08T09:00:02.114Z,97975.41
2023-05-08T09:05:07.005Z,97972.53
2023-05-08T09:10:15.418Z,97973.59
2023-05-08T09:15:20.162Z,97967.56
2023-05-08T09:20:24.456Z,97968.19
2023-05-08T09:25:27.870Z,97974.97
2023-05-08T09:30:32.621Z,97971.63
2023-05-08T09:35:37.858Z,97981.88
2023-05-08T09:40:40.879Z,97967.00
2023-05-08T09:45:45.322Z,97971.97
2023-05-08T09:51:07.119Z,97961.53
2023-05-08T09:56:10.762Z,97971.47
2023-05-08T10:06:42.721Z,97970.19
2023-05-08T10:11:52.462Z,97969.69
2023-05-08T10:16:56.247Z,97965.66
2023-05-08T10:22:04.286Z,97975.16
2023-05-08T10:27:15.082Z,97966.38
2023-05-08T10:32:21.466Z,97975.72
2023-05-08T10:37:26.742Z,97970.75
2023-05-08T10:42:30.605Z,97982.69
2023-05-08T10:47:45.787Z,97967.59
2023-05-08T10:52:57.013Z,97964.25
2023-05-08T10:58:04.973Z,97966.25
2023-05-08T11:03:20.102Z,97971.97
2023-05-08T11:08:30.077Z,97964.22
2023-05-08T11:13:36.122Z,97973.59
2023-05-08T11:18:49.009Z,97967.69
2023-05-08T11:23:58.965Z,97971.25
2023-05-08T11:29:02.847Z,97975.50
2023-05-08T11:34:06.226Z,97970.47
2023-05-08T11:39:12.829Z,97963.69
2023-05-08T11:44:20.853Z,97959.53
2023-05-08T11:49:28.903Z,97960.59
2023-05-08T11:54:34.688Z,97955.63
2023-05-08T11:59:38.236Z,97957.16
2023-05-08T12:04:46.611Z,97957.44
2023-05-08T12:09:51.657Z,97952.59
2023-05-08T12:14:54.828Z,97953.13
2023-05-08T12:20:04.072Z,97946.38
2023-05-08T12:25:12.323Z,97939.00
2023-05-08T12:30:16.860Z,97930.97
2023-05-08T12:35:21.216Z,97934.09
2023-05-08T12:40:29.374Z,97926.94
2023-05-08T12:45:35.617Z,97933.88
2023-05-08T12:50:40.759Z,97922.25
2023-05-08T12:55:54.537Z,97919.00
2023-05-08T13:01:07.547Z,97915.31
2023-05-08T13:06:21.562Z,97908.94
2023-05-08T13:11:34.415Z,97902.13
2023-05-08T13:16:44.455Z,97895.91
2023-05-08T13:21:48.204Z,97901.31
2023-05-08T13:26:53.612Z,97894.16
2023-05-08T13:31:57.061Z,97882.69
2023-05-08T13:37:01.205Z,97873.69
2023-05-08T13:42:06.188Z,97875.25
2023-05-08T13:47:10.793Z,97878.34
2023-05-08T13:52:14.122Z,97864.03
2023-05-08T13:57:19.061Z,97857.44
2023-05-08T14:02:22.557Z,97841.00
2023-05-08T14:07:26.298Z,97848.13
2023-05-08T14:12:31.424Z,97848.66
2023-05-08T14:17:36.230Z,97850.63
2023-05-08T14:22:39.649Z,97852.66
2023-05-08T14:27:44.431Z,97846.56
2023-05-08T14:32:47.939Z,97853.00
2023-05-08T14:37:51.320Z,97848.53
2023-05-08T14:42:55.931Z,97847.44
2023-05-08T14:47:59.380Z,97834.00
2023-05-08T14:53:02.776Z,97845.63
2023-05-08T14:58:08.002Z,97835.72
2023-05-08T15:03:11.652Z,97848.63
2023-05-08T15:08:15.385Z,97845.16
2023-05-08T15:13:20.281Z,97842.59
2023-05-08T15:18:25.687Z,97846.44
2023-05-08T15:23:29.119Z,97845.50
2023-05-08T15:28:33.811Z,97843.16
2023-05-08T15:33:37.041Z,97841.97
2023-05-08T15:38:40.876Z,97843.91
2023-05-08T15:43:46.282Z,97845.72
2023-05-08T15:48:49.702Z,97841.75
2023-05-08T15:53:52.946Z,97839.75
2023-05-08T15:58:57.573Z,97834.25
2023-05-08T16:04:00.749Z,97827.56
2023-05-08T16:09:03.995Z,97830.53
2023-05-08T16:14:08.539Z,97831.09
2023-05-08T16:19:11.710Z,97828.84
2023-05-08T16:24:14.957Z,97824.00
2023-05-08T16:29:19.938Z,97816.97
2023-05-08T16:34:23.411Z,97824.19
2023-05-08T16:39:26.961Z,97825.25
2023-05-08T16:44:31.736Z,97827.88
2023-05-08T16:49:34.942Z,97817.44
2023-05-08T16:54:38.192Z,97820.78
2023-05-08T16:59:43.650Z,97825.16
2023-05-08T17:04:48.007Z,97825.13
2023-05-08T17:09:53.107Z,97825.44
2023-05-08T17:14:57.710Z,97836.56
2023-05-08T17:20:00.907Z,97839.88
2023-05-08T17:25:04.113Z,97846.63
2023-05-08T17:30:13.794Z,97847.28
2023-05-08T17:35:17.652Z,97844.28
2023-05-08T17:40:21.020Z,97842.91
2023-05-08T17:45:26.106Z,97833.69
2023-05-08T17:50:29.618Z,97843.75
2023-05-08T17:55:34.588Z,97844.78
2023-05-08T18:00:39.964Z,97842.47
2023-05-08T18:05:43.815Z,97846.75
2023-05-08T18:10:47.586Z,97851.22
2023-05-08T18:15:53.000Z,97850.00
2023-05-08T18:20:56.437Z,97856.19
2023-05-08T18:26:02.075Z,97858.88
2023-05-08T18:31:06.920Z,97852.31
2023-05-08T18:36:10.745Z,97856.44
2023-05-08T18:41:14.715Z,97844.06
2023-05-08T18:46:19.497Z,97865.53
2023-05-08T18:51:22.910Z,97860.34
2023-05-08T18:56:26.368Z,97874.16
2023-05-08T19:01:30.969Z,97869.66
2023-05-08T19:06:34.680Z,97874.38
2023-05-08T19:11:38.209Z,97879.41
2023-05-08T19:16:43.736Z,97886.63
2023-05-08T19:21:47.051Z,97888.41
2023-05-08T19:26:50.315Z,97892.66
2023-05-08T19:31:56.443Z,97893.94
2023-05-08T19:37:00.377Z,97891.94
2023-05-08T19:42:04.505Z,97896.13
2023-05-08T19:47:09.244Z,97898.63
2023-05-08T19:52:13.152Z,97895.19
2023-05-08T19:57:16.332Z,97894.84
2023-05-08T20:02:21.496Z,97900.47
2023-05-08T20:07:25.429Z,97913.94
2023-05-08T20:12:28.804Z,97914.03
2023-05-08T20:17:34.418Z,97917.66
2023-05-08T20:22:38.131Z,97903.44
2023-05-08T20:27:41.495Z,97907.44
2023-05-08T20:32:46.334Z,97902.88
2023-05-08T20:37:50.101Z,97906.13
2023-05-08T20:42:53.438Z,97904.44
2023-05-08T20:47:58.240Z,97905.41
2023-05-08T20:53:01.710Z,97889.75
2023-05-08T20:58:04.993Z,97898.19
2023-05-08T21:03:09.530Z,97888.09
2023-05-08T21:08:12.985Z,97891.75
2023-05-08T21:13:16.437Z,97890.66
2023-05-08T21:18:21.169Z,97891.13
2023-05-08T21:23:24.448Z,97883.91
2023-05-08T21:28:27.712Z,97878.34
2023-05-08T21:33:33.664Z,97874.41
2023-05-08T21:38:36.874Z,97868.50
2023-05-08T21:43:40.157Z,97867.06
2023-05-08T21:48:44.846Z,97864.00
2023-05-08T21:53:48.077Z,97865.00
2023-05-08T21:58:51.329Z,97865.41
2023-05-08T22:03:55.970Z,97865.34
2023-05-08T22:08:59.241Z,97871.38
2023-05-08T22:14:02.378Z,97868.28
2023-05-08T22:19:07.146Z,97874.94
2023-05-08T22:24:10.320Z,97878.25
2023-05-08T22:29:13.500Z,97876.06
2023-05-08T22:34:18.247Z,97876.28
2023-05-08T22:39:21.439Z,97874.38
2023-05-08T22:44:24.727Z,97868.50
2023-05-08T22:49:30.048Z,97861.09
2023-05-08T22:54:33.432Z,97862.56
2023-05-08T22:59:37.549Z,97855.28
2023-05-08T23:04:42.275Z,97858.13
2023-05-08T23:09:45.704Z,97844.63
2023-05-08T23:14:48.962Z,97847.34
2023-05-08T23:19:53.661Z,97834.47
2023-05-08T23:24:56.948Z,97835.63
2023-05-08T23:30:00.422Z,97824.63
2023-05-08T23:35:05.746Z,97824.28
2023-05-08T23:40:11.400Z,97811.28
2023-05-08T23:45:14.856Z,97814.31
2023-05-08T23:50:19.532Z,97805.00
2023-05-08T23:55:22.806Z,97791.16
